Sturgis, Canada
Current Conditions -  °F | °C
As of 8:00 AM on Wednesday 28 Jan 2015 (Local Time) from CYQV Reporting Station
Light Snow Light Snow  
Wind Chill:   Ceiling: 6000
Heat Index: 16°   Visibility: 9mi
Dew Point: 14°   Wind: 8mph
Humidity: 93%   Direction: 30°NNE
Pressure: 29.93"   Gusts: NA
Location:  51.85°N, 102.53°W
Report Text: CYQV 281400Z AUTO 03007KT 9SM -SN FEW027 SCT036 BKN060 OVC110 M09/M10 A2993 RMK SLP170
Loading
Personal Weather Stations






























Interactive Weather Map New forecast layout! Learn more

10-Day Weather Forecast

Advertisements
Track Severe Weather on mobile